createdAt,value
2022-11-26T00:00:20.286Z,1005.12
2022-11-26T00:01:20.257Z,1005.14
2022-11-26T00:02:20.451Z,1005.17
2022-11-26T00:03:20.270Z,1005.18
2022-11-26T00:04:20.236Z,1005.16
2022-11-26T00:05:20.248Z,1005.15
2022-11-26T00:06:20.199Z,1005.18
2022-11-26T00:07:20.239Z,1005.20
2022-11-26T00:08:20.192Z,1005.21
2022-11-26T00:09:20.173Z,1005.19
2022-11-26T00:10:20.166Z,1005.26
2022-11-26T00:11:20.178Z,1005.26
2022-11-26T00:12:20.137Z,1005.21
2022-11-26T00:13:20.138Z,1005.24
2022-11-26T00:14:20.110Z,1005.27
2022-11-26T00:15:20.110Z,1005.27
2022-11-26T00:16:20.181Z,1005.29
2022-11-26T00:17:20.143Z,1005.29
2022-11-26T00:18:20.075Z,1005.29
2022-11-26T00:19:20.082Z,1005.29
2022-11-26T00:20:20.042Z,1005.29
2022-11-26T00:21:20.064Z,1005.33
2022-11-26T00:22:20.031Z,1005.33
2022-11-26T00:23:20.010Z,1005.35
2022-11-26T00:24:20.003Z,1005.42
2022-11-26T00:25:20.020Z,1005.38
2022-11-26T00:26:19.980Z,1005.44
2022-11-26T00:27:19.961Z,1005.42
2022-11-26T00:28:19.984Z,1005.42
2022-11-26T00:29:19.940Z,1005.41
2022-11-26T00:30:19.951Z,1005.43
2022-11-26T00:31:19.981Z,1005.42
2022-11-26T00:32:19.915Z,1005.45
2022-11-26T00:33:19.919Z,1005.47
2022-11-26T00:34:19.916Z,1005.54
2022-11-26T00:35:19.881Z,1005.56
2022-11-26T00:36:19.887Z,1005.54
2022-11-26T00:37:19.891Z,1005.58
2022-11-26T00:38:19.844Z,1005.57
2022-11-26T00:39:19.831Z,1005.55
2022-11-26T00:40:19.818Z,1005.56
2022-11-26T00:41:19.807Z,1005.56
2022-11-26T00:42:19.821Z,1005.55
2022-11-26T00:43:19.786Z,1005.57
2022-11-26T00:44:19.789Z,1005.58
2022-11-26T00:45:19.760Z,1005.59
2022-11-26T00:46:19.797Z,1005.57
2022-11-26T00:47:19.754Z,1005.59
2022-11-26T00:48:19.770Z,1005.62
2022-11-26T00:49:19.730Z,1005.66
2022-11-26T00:50:19.707Z,1005.62
2022-11-26T00:51:19.754Z,1005.71
2022-11-26T00:52:19.716Z,1005.66
2022-11-26T00:53:19.697Z,1005.70
2022-11-26T00:54:19.673Z,1005.71
2022-11-26T00:55:19.658Z,1005.72
2022-11-26T00:56:19.677Z,1005.73
2022-11-26T00:57:19.653Z,1005.75
2022-11-26T00:58:19.624Z,1005.72
2022-11-26T00:59:19.661Z,1005.76
2022-11-26T01:00:19.597Z,1005.79
2022-11-26T01:01:19.618Z,1005.82
2022-11-26T01:02:19.687Z,1005.82
2022-11-26T01:03:19.561Z,1005.87
2022-11-26T01:04:19.575Z,1005.88
2022-11-26T01:05:19.565Z,1005.93
2022-11-26T01:06:19.539Z,1005.92
2022-11-26T01:07:19.567Z,1005.92
2022-11-26T01:08:19.522Z,1005.96
2022-11-26T01:09:19.510Z,1006.02
2022-11-26T01:10:19.516Z,1006.01
2022-11-26T01:11:19.477Z,1006.01
2022-11-26T01:12:19.462Z,1006.00
2022-11-26T01:13:19.454Z,1006.02
2022-11-26T01:14:19.451Z,1006.02
2022-11-26T01:15:19.450Z,1006.08
2022-11-26T01:16:19.465Z,1006.05
2022-11-26T01:17:19.412Z,1006.09
2022-11-26T01:18:19.415Z,1006.09
2022-11-26T01:19:19.406Z,1006.05
2022-11-26T01:20:24.030Z,1006.06
2022-11-26T01:21:20.358Z,1006.04
2022-11-26T01:22:19.362Z,1006.02
2022-11-26T01:23:19.352Z,1006.02
2022-11-26T01:24:19.361Z,1006.03
2022-11-26T01:25:19.336Z,1006.00
2022-11-26T01:26:19.322Z,1006.07
2022-11-26T01:27:19.318Z,1006.08
2022-11-26T01:28:19.283Z,1006.04
2022-11-26T01:29:19.327Z,1006.09
2022-11-26T01:30:19.277Z,1006.06
2022-11-26T01:31:19.287Z,1006.14
2022-11-26T01:32:19.262Z,1006.12
2022-11-26T01:33:19.230Z,1006.18
2022-11-26T01:34:19.251Z,1006.19
2022-11-26T01:35:19.214Z,1006.26
2022-11-26T01:36:19.196Z,1006.26
2022-11-26T01:37:19.204Z,1006.28
2022-11-26T01:38:19.179Z,1006.27
2022-11-26T01:39:19.187Z,1006.30
2022-11-26T01:40:19.156Z,1006.32
2022-11-26T01:41:19.166Z,1006.31
2022-11-26T01:42:19.162Z,1006.33
2022-11-26T01:43:19.134Z,1006.32
2022-11-26T01:44:19.113Z,1006.33
2022-11-26T01:45:19.097Z,1006.31
2022-11-26T01:46:19.167Z,1006.35
2022-11-26T01:47:19.095Z,1006.37
2022-11-26T01:48:19.077Z,1006.39
2022-11-26T01:49:19.062Z,1006.45
2022-11-26T01:50:19.043Z,1006.42
2022-11-26T01:51:19.030Z,1006.43
2022-11-26T01:52:19.022Z,1006.46
2022-11-26T01:53:19.037Z,1006.43
2022-11-26T01:54:18.999Z,1006.43
2022-11-26T01:55:18.987Z,1006.39
2022-11-26T01:56:18.989Z,1006.43
2022-11-26T01:57:18.988Z,1006.43
2022-11-26T01:58:18.983Z,1006.44
2022-11-26T01:59:18.978Z,1006.44
2022-11-26T02:00:18.927Z,1006.49
2022-11-26T02:01:18.939Z,1006.49
2022-11-26T02:02:18.974Z,1006.54
2022-11-26T02:03:18.907Z,1006.50
2022-11-26T02:04:18.887Z,1006.54
2022-11-26T02:05:18.894Z,1006.51
2022-11-26T02:06:18.861Z,1006.52
2022-11-26T02:07:18.889Z,1006.53
2022-11-26T02:08:18.877Z,1006.55
2022-11-26T02:09:18.912Z,1006.48
2022-11-26T02:10:18.868Z,1006.53
2022-11-26T02:11:18.806Z,1006.57
2022-11-26T02:12:18.794Z,1006.54
2022-11-26T02:13:18.807Z,1006.56
2022-11-26T02:14:18.772Z,1006.56
2022-11-26T02:15:18.784Z,1006.58
2022-11-26T02:16:18.785Z,1006.55
2022-11-26T02:17:18.735Z,1006.58
2022-11-26T02:18:18.740Z,1006.58
2022-11-26T02:19:18.756Z,1006.59
2022-11-26T02:20:18.809Z,1006.58
2022-11-26T02:21:18.722Z,1006.57
2022-11-26T02:22:18.678Z,1006.55
2022-11-26T02:23:18.682Z,1006.58
2022-11-26T02:24:18.656Z,1006.63
2022-11-26T02:25:18.671Z,1006.65
2022-11-26T02:26:18.675Z,1006.71
2022-11-26T02:27:18.665Z,1006.70
2022-11-26T02:28:18.619Z,1006.73
2022-11-26T02:29:18.645Z,1006.75
2022-11-26T02:30:18.597Z,1006.73
2022-11-26T02:31:18.662Z,1006.73
2022-11-26T02:32:18.578Z,1006.80
2022-11-26T02:33:18.622Z,1006.80
2022-11-26T02:34:18.551Z,1006.81
2022-11-26T02:35:18.536Z,1006.85
2022-11-26T02:36:18.529Z,1006.82
2022-11-26T02:37:18.511Z,1006.87
2022-11-26T02:38:18.512Z,1006.86
2022-11-26T02:39:18.516Z,1006.90
2022-11-26T02:40:18.507Z,1006.92
2022-11-26T02:41:18.472Z,1006.91
2022-11-26T02:42:18.584Z,1006.92
2022-11-26T02:43:18.451Z,1006.92
2022-11-26T02:44:18.464Z,1006.92
2022-11-26T02:45:18.466Z,1006.93
2022-11-26T02:46:18.491Z,1006.96
2022-11-26T02:47:18.402Z,1006.97
2022-11-26T02:48:18.429Z,1007.01
2022-11-26T02:49:18.406Z,1007.07
2022-11-26T02:50:18.401Z,1007.09
2022-11-26T02:51:18.357Z,1007.14
2022-11-26T02:52:18.434Z,1007.17
2022-11-26T02:53:18.391Z,1007.18
2022-11-26T02:54:18.324Z,1007.20
2022-11-26T02:55:18.325Z,1007.25
2022-11-26T02:56:18.336Z,1007.21
2022-11-26T02:57:18.348Z,1007.19
2022-11-26T02:58:18.281Z,1007.21
2022-11-26T02:59:18.284Z,1007.23
2022-11-26T03:00:18.266Z,1007.23
2022-11-26T03:01:18.322Z,1007.25
2022-11-26T03:02:18.242Z,1007.27
2022-11-26T03:03:18.227Z,1007.29
2022-11-26T03:04:18.226Z,1007.30
2022-11-26T03:05:18.245Z,1007.29
2022-11-26T03:06:18.220Z,1007.30
2022-11-26T03:07:18.261Z,1007.34
2022-11-26T03:08:18.214Z,1007.33
2022-11-26T03:09:18.238Z,1007.34
2022-11-26T03:10:18.144Z,1007.33
2022-11-26T03:11:18.183Z,1007.37
2022-11-26T03:12:18.210Z,1007.31
2022-11-26T03:13:18.140Z,1007.35
2022-11-26T03:14:18.101Z,1007.33
2022-11-26T03:15:18.090Z,1007.35
2022-11-26T03:16:18.454Z,1007.38
2022-11-26T03:17:18.140Z,1007.37
2022-11-26T03:18:18.133Z,1007.38
2022-11-26T03:19:18.046Z,1007.40
2022-11-26T03:20:18.036Z,1007.40
2022-11-26T03:21:18.053Z,1007.42
2022-11-26T03:22:18.055Z,1007.40
2022-11-26T03:23:18.040Z,1007.43
2022-11-26T03:24:18.003Z,1007.43
2022-11-26T03:25:17.979Z,1007.45
2022-11-26T03:26:17.979Z,1007.45
2022-11-26T03:27:18.001Z,1007.42
2022-11-26T03:28:17.981Z,1007.43
2022-11-26T03:29:17.947Z,1007.44
2022-11-26T03:30:17.923Z,1007.45
2022-11-26T03:31:17.983Z,1007.43
2022-11-26T03:32:17.896Z,1007.40
2022-11-26T03:33:17.912Z,1007.40
2022-11-26T03:34:17.879Z,1007.47
2022-11-26T03:35:17.879Z,1007.46
2022-11-26T03:36:17.860Z,1007.44
2022-11-26T03:37:17.870Z,1007.54
2022-11-26T03:38:17.871Z,1007.57
2022-11-26T03:39:17.846Z,1007.55
2022-11-26T03:40:17.818Z,1007.57
2022-11-26T03:41:17.825Z,1007.57
2022-11-26T03:42:17.794Z,1007.53
2022-11-26T03:43:17.786Z,1007.49
2022-11-26T03:44:17.793Z,1007.53
2022-11-26T03:45:17.759Z,1007.53
2022-11-26T03:46:17.834Z,1007.56
2022-11-26T03:47:17.800Z,1007.50
2022-11-26T03:48:17.724Z,1007.55
2022-11-26T03:49:17.731Z,1007.53
2022-11-26T03:50:17.733Z,1007.59
2022-11-26T03:51:17.692Z,1007.58
2022-11-26T03:52:17.756Z,1007.57
2022-11-26T03:53:17.669Z,1007.56
2022-11-26T03:54:17.661Z,1007.52
2022-11-26T03:55:17.675Z,1007.54
2022-11-26T03:56:17.656Z,1007.59
2022-11-26T03:57:17.633Z,1007.59
2022-11-26T03:58:17.618Z,1007.59
2022-11-26T03:59:17.618Z,1007.64
2022-11-26T04:00:17.665Z,1007.62
2022-11-26T04:01:17.655Z,1007.62
2022-11-26T04:02:17.578Z,1007.62
2022-11-26T04:03:17.671Z,1007.63
2022-11-26T04:04:17.576Z,1007.66
2022-11-26T04:05:17.567Z,1007.64
2022-11-26T04:06:17.596Z,1007.67
2022-11-26T04:07:17.591Z,1007.70
2022-11-26T04:08:17.526Z,1007.67
2022-11-26T04:09:17.510Z,1007.74
2022-11-26T04:10:17.502Z,1007.70
2022-11-26T04:11:17.556Z,1007.79
2022-11-26T04:12:17.466Z,1007.83
2022-11-26T04:13:17.467Z,1007.80
2022-11-26T04:14:17.462Z,1007.84
2022-11-26T04:15:17.438Z,1007.85
2022-11-26T04:16:17.563Z,1007.86
2022-11-26T04:17:17.421Z,1007.84
2022-11-26T04:18:17.415Z,1007.82
2022-11-26T04:19:17.386Z,1007.82
2022-11-26T04:20:17.369Z,1007.82
2022-11-26T04:21:17.383Z,1007.85
2022-11-26T04:22:17.350Z,1007.87
2022-11-26T04:23:17.360Z,1007.85
2022-11-26T04:24:17.361Z,1007.85
2022-11-26T04:25:17.344Z,1007.86
2022-11-26T04:26:17.378Z,1007.87
2022-11-26T04:27:17.309Z,1007.89
2022-11-26T04:28:17.315Z,1007.87
2022-11-26T04:29:17.278Z,1007.88
2022-11-26T04:30:17.261Z,1007.86
2022-11-26T04:31:17.265Z,1007.89
2022-11-26T04:32:17.236Z,1007.87
2022-11-26T04:33:17.247Z,1007.88
2022-11-26T04:34:17.216Z,1007.89
2022-11-26T04:35:17.202Z,1007.89
2022-11-26T04:36:17.195Z,1007.93
2022-11-26T04:37:17.256Z,1007.91
2022-11-26T04:38:19.424Z,1007.96
2022-11-26T04:39:18.156Z,1007.95
2022-11-26T04:40:17.150Z,1007.93
2022-11-26T04:41:17.167Z,1007.91
2022-11-26T04:42:17.148Z,1007.97
2022-11-26T04:43:17.141Z,1007.87
2022-11-26T04:44:17.121Z,1007.88
2022-11-26T04:45:17.140Z,1007.92
2022-11-26T04:46:17.116Z,1007.88
2022-11-26T04:47:17.091Z,1007.92
2022-11-26T04:48:17.057Z,1007.96
2022-11-26T04:49:17.077Z,1007.97
2022-11-26T04:50:17.046Z,1007.98
2022-11-26T04:51:17.023Z,1008.01
2022-11-26T04:52:17.018Z,1008.04
2022-11-26T04:53:17.033Z,1008.07
2022-11-26T04:54:17.017Z,1008.12
2022-11-26T04:55:16.990Z,1008.16
2022-11-26T04:56:16.970Z,1008.17
2022-11-26T04:57:16.964Z,1008.14
2022-11-26T04:58:16.994Z,1008.14
2022-11-26T04:59:16.980Z,1008.12
2022-11-26T05:00:16.941Z,1008.13
2022-11-26T05:01:17.000Z,1008.14
2022-11-26T05:02:16.949Z,1008.15
2022-11-26T05:03:16.914Z,1008.17
2022-11-26T05:04:16.898Z,1008.12
2022-11-26T05:05:16.938Z,1008.06
2022-11-26T05:06:16.874Z,1008.14
2022-11-26T05:07:16.903Z,1008.09
2022-11-26T05:08:16.845Z,1008.10
2022-11-26T05:09:16.872Z,1008.07
2022-11-26T05:10:16.827Z,1008.08
2022-11-26T05:11:16.806Z,1008.12
2022-11-26T05:12:16.801Z,1008.08
2022-11-26T05:13:16.809Z,1008.09
2022-11-26T05:14:16.825Z,1008.10
2022-11-26T05:15:16.786Z,1008.11
2022-11-26T05:16:16.820Z,1008.06
2022-11-26T05:17:16.752Z,1008.11
2022-11-26T05:18:16.735Z,1008.06
2022-11-26T05:19:16.726Z,1008.14
2022-11-26T05:20:16.708Z,1008.14
2022-11-26T05:21:16.712Z,1008.17
2022-11-26T05:22:16.694Z,1008.13
2022-11-26T05:23:16.676Z,1008.15
2022-11-26T05:24:16.695Z,1008.15
2022-11-26T05:25:16.678Z,1008.09
2022-11-26T05:26:16.660Z,1008.18
2022-11-26T05:27:16.629Z,1008.13
2022-11-26T05:28:16.634Z,1008.19
2022-11-26T05:29:16.610Z,1008.21
2022-11-26T05:30:16.617Z,1008.23
2022-11-26T05:31:16.620Z,1008.24
2022-11-26T05:32:16.571Z,1008.28
2022-11-26T05:33:16.558Z,1008.28
2022-11-26T05:34:16.556Z,1008.27
2022-11-26T05:35:16.558Z,1008.30
2022-11-26T05:36:16.527Z,1008.29
2022-11-26T05:37:16.516Z,1008.31
2022-11-26T05:38:16.504Z,1008.30
2022-11-26T05:39:16.511Z,1008.34
2022-11-26T05:40:16.516Z,1008.36
2022-11-26T05:41:16.510Z,1008.39
2022-11-26T05:42:16.463Z,1008.36
2022-11-26T05:43:16.457Z,1008.41
2022-11-26T05:44:16.439Z,1008.48
2022-11-26T05:45:16.431Z,1008.43
2022-11-26T05:46:16.526Z,1008.45
2022-11-26T05:47:16.425Z,1008.45
2022-11-26T05:48:16.401Z,1008.48
2022-11-26T05:49:16.405Z,1008.47
2022-11-26T05:50:16.397Z,1008.53
2022-11-26T05:51:16.391Z,1008.52
2022-11-26T05:52:16.356Z,1008.53
2022-11-26T05:53:16.344Z,1008.52
2022-11-26T05:54:16.328Z,1008.49
2022-11-26T05:55:16.322Z,1008.53
2022-11-26T05:56:16.332Z,1008.49
2022-11-26T05:57:16.315Z,1008.55
2022-11-26T05:58:16.302Z,1008.54
2022-11-26T05:59:16.327Z,1008.55
2022-11-26T06:00:16.312Z,1008.59
2022-11-26T06:01:16.268Z,1008.57
2022-11-26T06:02:16.499Z,1008.60
2022-11-26T06:03:20.112Z,1008.62
2022-11-26T06:04:16.226Z,1008.62
2022-11-26T06:05:16.223Z,1008.62
2022-11-26T06:06:16.230Z,1008.63
2022-11-26T06:07:16.243Z,1008.63
2022-11-26T06:08:16.180Z,1008.63
2022-11-26T06:09:16.164Z,1008.66
2022-11-26T06:10:16.174Z,1008.64
2022-11-26T06:11:16.142Z,1008.67
2022-11-26T06:12:16.136Z,1008.68
2022-11-26T06:13:16.141Z,1008.66
2022-11-26T06:14:16.137Z,1008.65
2022-11-26T06:15:16.119Z,1008.69
2022-11-26T06:16:16.176Z,1008.65
2022-11-26T06:17:16.081Z,1008.63
2022-11-26T06:18:16.070Z,1008.59
2022-11-26T06:19:16.081Z,1008.62
2022-11-26T06:20:16.073Z,1008.65
2022-11-26T06:21:16.070Z,1008.68
2022-11-26T06:22:16.031Z,1008.67
2022-11-26T06:23:16.057Z,1008.66
2022-11-26T06:24:16.112Z,1008.73
2022-11-26T06:25:15.992Z,1008.76
2022-11-26T06:26:16.011Z,1008.75
2022-11-26T06:27:16.108Z,1008.77
2022-11-26T06:28:16.034Z,1008.79
2022-11-26T06:29:15.959Z,1008.83
2022-11-26T06:30:15.947Z,1008.86
2022-11-26T06:31:16.046Z,1008.92
2022-11-26T06:32:15.912Z,1008.91
2022-11-26T06:33:15.910Z,1008.96
2022-11-26T06:34:15.887Z,1008.93
2022-11-26T06:35:15.875Z,1008.94
2022-11-26T06:36:15.894Z,1008.98
2022-11-26T06:37:15.866Z,1008.95
2022-11-26T06:38:15.860Z,1008.96
2022-11-26T06:39:15.839Z,1009.00
2022-11-26T06:40:15.822Z,1009.00
2022-11-26T06:41:15.834Z,1009.01
2022-11-26T06:42:15.810Z,1009.04
2022-11-26T06:43:15.835Z,1009.07
2022-11-26T06:44:15.849Z,1009.08
2022-11-26T06:45:15.797Z,1009.11
2022-11-26T06:46:15.853Z,1009.09
2022-11-26T06:47:15.776Z,1009.12
2022-11-26T06:48:15.746Z,1009.13
2022-11-26T06:49:15.771Z,1009.15
2022-11-26T06:50:15.725Z,1009.18
2022-11-26T06:51:15.757Z,1009.18
2022-11-26T06:52:15.718Z,1009.20
2022-11-26T06:53:15.699Z,1009.20
2022-11-26T06:54:15.732Z,1009.23
2022-11-26T06:55:15.664Z,1009.17
2022-11-26T06:56:18.754Z,1009.18
2022-11-26T06:57:15.683Z,1009.21
2022-11-26T06:58:15.689Z,1009.23
2022-11-26T06:59:15.653Z,1009.23
2022-11-26T07:00:15.675Z,1009.21
2022-11-26T07:01:15.693Z,1009.24
2022-11-26T07:02:15.680Z,1009.21
2022-11-26T07:03:19.776Z,1009.25
2022-11-26T07:04:16.594Z,1009.24
2022-11-26T07:05:15.553Z,1009.26
2022-11-26T07:06:15.542Z,1009.32
2022-11-26T07:07:15.587Z,1009.32
2022-11-26T07:08:15.557Z,1009.39
2022-11-26T07:09:15.505Z,1009.37
2022-11-26T07:10:15.491Z,1009.39
2022-11-26T07:11:15.509Z,1009.41
2022-11-26T07:12:15.488Z,1009.45
2022-11-26T07:13:15.458Z,1009.47
2022-11-26T07:14:15.485Z,1009.45
2022-11-26T07:15:15.441Z,1009.46
2022-11-26T07:16:15.542Z,1009.51
2022-11-26T07:17:15.447Z,1009.49
2022-11-26T07:18:15.403Z,1009.53
2022-11-26T07:19:15.413Z,1009.49
2022-11-26T07:20:15.400Z,1009.54
2022-11-26T07:21:15.409Z,1009.55
2022-11-26T07:22:15.410Z,1009.57
2022-11-26T07:23:15.351Z,1009.55
2022-11-26T07:24:15.337Z,1009.59
2022-11-26T07:25:15.332Z,1009.60
2022-11-26T07:26:15.355Z,1009.63
2022-11-26T07:27:15.309Z,1009.67
2022-11-26T07:28:15.368Z,1009.61
2022-11-26T07:29:15.278Z,1009.63
2022-11-26T07:30:15.294Z,1009.61
2022-11-26T07:31:17.064Z,1009.60
2022-11-26T07:32:15.308Z,1009.59
2022-11-26T07:33:15.308Z,1009.66
2022-11-26T07:34:15.238Z,1009.66
2022-11-26T07:35:15.248Z,1009.64
2022-11-26T07:36:15.277Z,1009.65
2022-11-26T07:37:15.225Z,1009.68
2022-11-26T07:38:15.230Z,1009.73
2022-11-26T07:39:15.195Z,1009.71
2022-11-26T07:40:15.161Z,1009.75
2022-11-26T07:41:15.168Z,1009.77
2022-11-26T07:42:15.157Z,1009.73
2022-11-26T07:43:15.161Z,1009.76
2022-11-26T07:44:15.116Z,1009.71
2022-11-26T07:45:15.111Z,1009.75
2022-11-26T07:46:15.172Z,1009.75
2022-11-26T07:47:15.125Z,1009.76
2022-11-26T07:48:16.825Z,1009.75
2022-11-26T07:49:15.076Z,1009.76
2022-11-26T07:50:15.049Z,1009.77
2022-11-26T07:51:15.039Z,1009.74
2022-11-26T07:52:15.119Z,1009.72
2022-11-26T07:53:15.038Z,1009.79
2022-11-26T07:54:15.067Z,1009.79
2022-11-26T07:55:15.028Z,1009.80
2022-11-26T07:56:14.986Z,1009.80
2022-11-26T07:57:14.969Z,1009.78
2022-11-26T07:58:14.975Z,1009.83
2022-11-26T07:59:14.988Z,1009.84
2022-11-26T08:00:15.094Z,1009.85
2022-11-26T08:01:15.049Z,1009.85
2022-11-26T08:02:15.058Z,1009.90
2022-11-26T08:03:14.913Z,1009.91
2022-11-26T08:04:14.913Z,1009.83
2022-11-26T08:05:14.895Z,1009.90
2022-11-26T08:06:14.909Z,1009.89
2022-11-26T08:07:22.077Z,1009.92
2022-11-26T08:08:16.019Z,1009.89
2022-11-26T08:09:14.856Z,1009.95
2022-11-26T08:10:14.834Z,1009.96
2022-11-26T08:11:14.862Z,1009.97
2022-11-26T08:12:14.850Z,1010.03
2022-11-26T08:13:14.830Z,1010.01
2022-11-26T08:14:14.797Z,1009.99
2022-11-26T08:15:14.775Z,1009.99
2022-11-26T08:16:14.877Z,1010.02
2022-11-26T08:17:14.781Z,1010.04
2022-11-26T08:18:14.753Z,1010.00
2022-11-26T08:19:14.755Z,1010.05
2022-11-26T08:20:14.730Z,1010.02
2022-11-26T08:21:14.737Z,1010.01
2022-11-26T08:22:14.749Z,1010.03
2022-11-26T08:23:14.727Z,1010.05
2022-11-26T08:24:14.673Z,1010.04
2022-11-26T08:25:14.715Z,1010.07
2022-11-26T08:26:23.050Z,1010.06
2022-11-26T08:27:15.681Z,1010.10
2022-11-26T08:28:14.635Z,1010.09
2022-11-26T08:29:14.646Z,1010.09
2022-11-26T08:30:14.610Z,1010.12
2022-11-26T08:31:14.630Z,1010.09
2022-11-26T08:32:14.593Z,1010.07
2022-11-26T08:33:14.636Z,1010.06
2022-11-26T08:34:14.577Z,1010.13
2022-11-26T08:35:14.551Z,1010.14
2022-11-26T08:36:14.616Z,1010.11
2022-11-26T08:37:14.618Z,1010.14
2022-11-26T08:38:14.530Z,1010.09
2022-11-26T08:39:14.572Z,1010.12
2022-11-26T08:40:14.524Z,1010.14
2022-11-26T08:41:14.498Z,1010.11
2022-11-26T08:42:14.498Z,1010.14
2022-11-26T08:43:14.477Z,1010.16
2022-11-26T08:44:14.502Z,1010.10
2022-11-26T08:45:14.465Z,1010.12
2022-11-26T08:46:14.492Z,1010.11
2022-11-26T08:47:14.464Z,1010.17
2022-11-26T08:48:14.409Z,1010.14
2022-11-26T08:49:14.441Z,1010.17
2022-11-26T08:50:14.429Z,1010.17
2022-11-26T08:51:14.409Z,1010.15
2022-11-26T08:52:14.363Z,1010.13
2022-11-26T08:53:14.370Z,1010.18
2022-11-26T08:54:14.344Z,1010.13
2022-11-26T08:55:14.349Z,1010.19
2022-11-26T08:56:14.353Z,1010.16
2022-11-26T08:57:14.326Z,1010.14
2022-11-26T08:58:14.297Z,1010.14
2022-11-26T08:59:14.356Z,1010.12
2022-11-26T09:00:14.289Z,1010.12
2022-11-26T09:01:14.296Z,1010.15
2022-11-26T09:02:18.647Z,1010.13
2022-11-26T09:03:14.308Z,1010.18
2022-11-26T09:04:14.227Z,1010.19
2022-11-26T09:05:14.213Z,1010.20
2022-11-26T09:06:14.218Z,1010.23
2022-11-26T09:07:14.223Z,1010.21
2022-11-26T09:08:14.211Z,1010.23
2022-11-26T09:09:14.658Z,1010.28
2022-11-26T09:10:14.172Z,1010.24
2022-11-26T09:11:14.166Z,1010.25
2022-11-26T09:12:14.135Z,1010.23
2022-11-26T09:13:16.182Z,1010.21
2022-11-26T09:14:15.134Z,1010.28
2022-11-26T09:15:14.134Z,1010.26
2022-11-26T09:16:14.166Z,1010.30
2022-11-26T09:17:14.088Z,1010.35
2022-11-26T09:18:14.091Z,1010.35
2022-11-26T09:19:14.082Z,1010.30
2022-11-26T09:20:14.072Z,1010.31
2022-11-26T09:21:14.108Z,1010.30
2022-11-26T09:22:14.031Z,1010.32
2022-11-26T09:23:14.012Z,1010.32
2022-11-26T09:24:14.001Z,1010.30
2022-11-26T09:25:14.027Z,1010.28
2022-11-26T09:26:14.024Z,1010.27
2022-11-26T09:27:14.358Z,1010.27
2022-11-26T09:28:14.099Z,1010.30
2022-11-26T09:29:13.965Z,1010.31
2022-11-26T09:30:13.933Z,1010.27
2022-11-26T09:31:13.979Z,1010.31
2022-11-26T09:32:33.882Z,1010.36
2022-11-26T09:33:14.925Z,1010.32
2022-11-26T09:34:13.922Z,1010.34
2022-11-26T09:35:13.904Z,1010.31
2022-11-26T09:36:13.891Z,1010.35
2022-11-26T09:37:13.867Z,1010.37
2022-11-26T09:38:13.929Z,1010.34
2022-11-26T09:39:13.868Z,1010.36
2022-11-26T09:40:13.827Z,1010.33
2022-11-26T09:41:13.836Z,1010.37
2022-11-26T09:42:13.811Z,1010.33
2022-11-26T09:43:13.810Z,1010.31
2022-11-26T09:44:13.796Z,1010.30
2022-11-26T09:45:13.789Z,1010.29
2022-11-26T09:46:13.952Z,1010.31
2022-11-26T09:47:13.999Z,1010.32
2022-11-26T09:48:13.756Z,1010.31
2022-11-26T09:49:13.760Z,1010.34
2022-11-26T09:50:13.724Z,1010.38
2022-11-26T09:51:13.803Z,1010.41
2022-11-26T09:52:13.725Z,1010.47
2022-11-26T09:53:13.687Z,1010.41
2022-11-26T09:54:13.685Z,1010.43
2022-11-26T09:55:14.006Z,1010.48
2022-11-26T09:56:13.676Z,1010.46
2022-11-26T09:57:13.678Z,1010.46
2022-11-26T09:58:13.625Z,1010.47
2022-11-26T09:59:13.625Z,1010.46
2022-11-26T10:00:13.625Z,1010.46
2022-11-26T10:01:13.719Z,1010.44
2022-11-26T10:02:13.629Z,1010.47
2022-11-26T10:03:13.569Z,1010.43
2022-11-26T10:04:13.559Z,1010.44
2022-11-26T10:05:17.105Z,1010.38
2022-11-26T10:06:14.532Z,1010.41
2022-11-26T10:07:13.550Z,1010.38
2022-11-26T10:08:13.516Z,1010.41
2022-11-26T10:09:13.542Z,1010.44
2022-11-26T10:10:13.503Z,1010.42
2022-11-26T10:11:13.499Z,1010.43
2022-11-26T10:12:25.051Z,1010.44
2022-11-26T10:13:19.426Z,1010.43
2022-11-26T10:14:14.551Z,1010.48
2022-11-26T10:15:13.441Z,1010.44
2022-11-26T10:16:13.483Z,1010.47
2022-11-26T10:17:13.661Z,1010.47
2022-11-26T10:18:13.414Z,1010.53
2022-11-26T10:19:13.560Z,1010.58
2022-11-26T10:20:13.397Z,1010.59
2022-11-26T10:21:13.380Z,1010.55
2022-11-26T10:22:13.369Z,1010.51
2022-11-26T10:23:13.384Z,1010.49
2022-11-26T10:24:13.352Z,1010.46
2022-11-26T10:25:13.323Z,1010.47
2022-11-26T10:26:13.317Z,1010.49
2022-11-26T10:27:13.399Z,1010.44
2022-11-26T10:28:13.300Z,1010.45
2022-11-26T10:29:13.329Z,1010.48
2022-11-26T10:30:13.290Z,1010.50
2022-11-26T10:31:13.315Z,1010.46
2022-11-26T10:32:13.242Z,1010.47
2022-11-26T10:33:13.240Z,1010.49
2022-11-26T10:34:13.551Z,1010.48
2022-11-26T10:35:13.240Z,1010.49
2022-11-26T10:36:13.244Z,1010.46
2022-11-26T10:37:13.529Z,1010.47
2022-11-26T10:38:13.182Z,1010.49
2022-11-26T10:39:13.189Z,1010.49
2022-11-26T10:40:13.214Z,1010.46
2022-11-26T10:41:13.146Z,1010.50
2022-11-26T10:42:13.162Z,1010.53
2022-11-26T10:43:13.158Z,1010.50
2022-11-26T10:44:13.112Z,1010.53
2022-11-26T10:45:13.122Z,1010.52
2022-11-26T10:46:13.142Z,1010.48
2022-11-26T10:47:13.090Z,1010.53
2022-11-26T10:48:13.143Z,1010.55
2022-11-26T10:49:13.066Z,1010.60
2022-11-26T10:50:39.590Z,1010.61
2022-11-26T10:51:14.071Z,1010.64
2022-11-26T10:52:13.032Z,1010.64
2022-11-26T10:53:13.013Z,1010.65
2022-11-26T10:54:13.133Z,1010.60
2022-11-26T10:55:12.999Z,1010.66
2022-11-26T10:56:13.042Z,1010.65
2022-11-26T10:57:13.028Z,1010.66
2022-11-26T10:58:12.963Z,1010.70
2022-11-26T10:59:12.950Z,1010.69
2022-11-26T11:00:12.950Z,1010.70
2022-11-26T11:01:13.070Z,1010.71
2022-11-26T11:02:12.960Z,1010.74
2022-11-26T11:03:12.938Z,1010.69
2022-11-26T11:04:12.896Z,1010.71
2022-11-26T11:05:12.940Z,1010.72
2022-11-26T11:06:12.891Z,1010.73
2022-11-26T11:07:12.879Z,1010.73
2022-11-26T11:08:12.844Z,1010.76
2022-11-26T11:09:12.838Z,1010.72
2022-11-26T11:10:12.894Z,1010.71
2022-11-26T11:11:12.869Z,1010.70
2022-11-26T11:12:12.800Z,1010.74
2022-11-26T11:13:12.796Z,1010.71
2022-11-26T11:14:12.794Z,1010.70
2022-11-26T11:15:12.801Z,1010.68
2022-11-26T11:16:12.829Z,1010.72
2022-11-26T11:17:12.770Z,1010.73
2022-11-26T11:18:12.762Z,1010.70
2022-11-26T11:19:12.736Z,1010.70
2022-11-26T11:20:12.751Z,1010.73
2022-11-26T11:21:12.767Z,1010.71
2022-11-26T11:22:12.691Z,1010.76
2022-11-26T11:23:12.713Z,1010.78
2022-11-26T11:24:12.683Z,1010.76
2022-11-26T11:25:12.662Z,1010.80
2022-11-26T11:26:12.649Z,1010.83
2022-11-26T11:27:12.681Z,1010.79
2022-11-26T11:28:12.809Z,1010.76
2022-11-26T11:29:12.660Z,1010.80
2022-11-26T11:30:12.649Z,1010.78
2022-11-26T11:31:12.629Z,1010.79
2022-11-26T11:32:12.583Z,1010.83
2022-11-26T11:33:12.590Z,1010.78
2022-11-26T11:34:12.555Z,1010.73
2022-11-26T11:35:12.579Z,1010.79
2022-11-26T11:36:12.541Z,1010.72
2022-11-26T11:37:14.955Z,1010.71
2022-11-26T11:38:12.514Z,1010.74
2022-11-26T11:39:12.511Z,1010.73
2022-11-26T11:40:15.870Z,1010.74
2022-11-26T11:41:12.562Z,1010.73
2022-11-26T11:42:12.488Z,1010.66
2022-11-26T11:43:12.468Z,1010.66
2022-11-26T11:44:12.449Z,1010.62
2022-11-26T11:45:12.441Z,1010.58
2022-11-26T11:46:12.446Z,1010.58
2022-11-26T11:47:12.436Z,1010.60
2022-11-26T11:48:12.402Z,1010.62
2022-11-26T11:49:12.408Z,1010.59
2022-11-26T11:50:12.384Z,1010.60
2022-11-26T11:51:12.396Z,1010.59
2022-11-26T11:52:12.365Z,1010.58
2022-11-26T11:53:12.371Z,1010.58
2022-11-26T11:54:12.369Z,1010.56
2022-11-26T11:55:12.319Z,1010.55
2022-11-26T11:56:12.308Z,1010.59
2022-11-26T11:57:12.301Z,1010.57
2022-11-26T11:58:12.316Z,1010.52
2022-11-26T11:59:12.286Z,1010.50
2022-11-26T12:00:12.278Z,1010.50
2022-11-26T12:01:12.333Z,1010.47
2022-11-26T12:02:12.299Z,1010.48
2022-11-26T12:03:12.252Z,1010.47
2022-11-26T12:04:17.980Z,1010.48
2022-11-26T12:05:13.301Z,1010.46